createdAt,value
2023-05-19T00:02:25.958Z,13.60
2023-05-19T00:04:53.388Z,13.50
2023-05-19T00:07:23.989Z,13.50
2023-05-19T00:09:51.053Z,13.40
2023-05-19T00:12:18.083Z,13.30
2023-05-19T00:14:45.135Z,13.30
2023-05-19T00:17:12.199Z,13.20
2023-05-19T00:19:39.466Z,13.20
2023-05-19T00:22:06.372Z,13.10
2023-05-19T00:24:33.368Z,13.00
2023-05-19T00:27:00.160Z,13.00
2023-05-19T00:29:26.939Z,12.90
2023-05-19T00:31:53.893Z,12.90
2023-05-19T00:34:20.700Z,12.80
2023-05-19T00:36:47.525Z,12.70
2023-05-19T00:39:14.289Z,12.60
2023-05-19T00:41:41.269Z,12.50
2023-05-19T00:44:08.205Z,12.50
2023-05-19T00:46:35.165Z,12.50
2023-05-19T00:49:01.974Z,12.40
2023-05-19T00:51:29.703Z,12.40
2023-05-19T00:53:56.708Z,12.30
2023-05-19T00:56:23.526Z,12.20
2023-05-19T00:58:51.841Z,12.20
2023-05-19T01:01:18.981Z,12.20
2023-05-19T01:03:47.159Z,12.20
2023-05-19T01:06:15.049Z,12.10
2023-05-19T01:08:41.926Z,12.10
2023-05-19T01:11:08.830Z,12.00
2023-05-19T01:13:36.540Z,12.00
2023-05-19T01:16:30.789Z,11.90
2023-05-19T01:19:10.934Z,11.80
2023-05-19T01:22:13.138Z,11.80
2023-05-19T01:25:19.961Z,11.80
2023-05-19T01:28:02.004Z,11.70
2023-05-19T01:30:31.197Z,11.60
2023-05-19T01:33:03.926Z,11.60
2023-05-19T01:35:31.177Z,11.50
2023-05-19T01:37:59.460Z,11.50
2023-05-19T01:40:27.577Z,11.40
2023-05-19T01:42:57.666Z,11.40
2023-05-19T01:45:26.158Z,11.30
2023-05-19T01:47:55.743Z,11.30
2023-05-19T01:50:22.888Z,11.20
2023-05-19T01:52:50.129Z,11.20
2023-05-19T01:55:17.079Z,11.10
2023-05-19T01:57:52.829Z,11.10
2023-05-19T02:00:32.189Z,11.00
2023-05-19T02:03:08.376Z,11.00
2023-05-19T02:05:40.731Z,11.00
2023-05-19T02:08:16.684Z,10.90
2023-05-19T02:10:45.836Z,10.80
2023-05-19T02:13:14.569Z,10.80
2023-05-19T02:15:42.461Z,10.80
2023-05-19T02:18:12.643Z,10.70
2023-05-19T02:20:40.245Z,10.70
2023-05-19T02:23:07.163Z,10.60
2023-05-19T02:25:34.170Z,10.60
2023-05-19T02:28:01.031Z,10.50
2023-05-19T02:30:28.052Z,10.40
2023-05-19T02:32:55.448Z,10.40
2023-05-19T02:35:24.001Z,10.40
2023-05-19T02:37:51.584Z,10.40
2023-05-19T02:40:18.464Z,10.30
2023-05-19T02:42:45.430Z,10.30
2023-05-19T02:45:12.198Z,10.30
2023-05-19T02:47:39.062Z,10.20
2023-05-19T02:50:06.473Z,10.20
2023-05-19T02:52:33.310Z,10.10
2023-05-19T02:55:00.364Z,10.10
2023-05-19T02:57:27.241Z,10.10
2023-05-19T02:59:54.022Z,10.00
2023-05-19T03:02:20.896Z,10.00
2023-05-19T03:04:47.910Z,9.90
2023-05-19T03:07:15.564Z,9.90
2023-05-19T03:09:42.454Z,9.90
2023-05-19T03:12:09.481Z,9.80
2023-05-19T03:14:39.112Z,9.80
2023-05-19T03:17:08.172Z,9.80
2023-05-19T03:19:35.201Z,9.70
2023-05-19T03:22:02.131Z,9.70
2023-05-19T03:24:29.237Z,9.70
2023-05-19T03:26:56.079Z,9.60
2023-05-19T03:29:22.841Z,9.60
2023-05-19T03:31:49.643Z,9.60
2023-05-19T03:34:16.392Z,9.50
2023-05-19T03:36:45.002Z,9.50
2023-05-19T03:39:12.137Z,9.40
2023-05-19T03:41:38.902Z,9.40
2023-05-19T03:44:05.885Z,9.30
2023-05-19T03:46:32.666Z,9.40
2023-05-19T03:48:59.424Z,9.30
2023-05-19T03:51:28.559Z,9.20
2023-05-19T03:53:55.923Z,9.10
2023-05-19T03:56:24.098Z,9.10
2023-05-19T03:58:50.873Z,9.10
2023-05-19T04:01:17.749Z,9.10
2023-05-19T04:03:44.520Z,9.00
2023-05-19T04:06:11.353Z,9.00
2023-05-19T04:08:38.240Z,9.00
2023-05-19T04:11:05.048Z,8.90
2023-05-19T04:13:34.949Z,8.90
2023-05-19T04:16:01.969Z,8.90
2023-05-19T04:18:29.357Z,8.80
2023-05-19T04:20:56.348Z,8.90
2023-05-19T04:23:23.261Z,8.90
2023-05-19T04:25:50.157Z,8.80
2023-05-19T04:28:17.884Z,8.80
2023-05-19T04:30:46.656Z,8.80
2023-05-19T04:33:13.765Z,8.70
2023-05-19T04:35:40.603Z,8.70
2023-05-19T04:38:07.675Z,8.70
2023-05-19T04:40:34.678Z,8.70
2023-05-19T04:43:02.363Z,8.60
2023-05-19T04:45:29.260Z,8.70
2023-05-19T04:47:58.177Z,8.60
2023-05-19T04:50:25.356Z,8.60
2023-05-19T04:52:52.122Z,8.60
2023-05-19T04:55:18.980Z,8.60
2023-05-19T04:57:45.760Z,8.50
2023-05-19T05:00:14.360Z,8.50
2023-05-19T05:02:42.926Z,8.50
2023-05-19T05:05:10.155Z,8.60
2023-05-19T05:07:36.912Z,8.60
2023-05-19T05:10:04.267Z,8.60
2023-05-19T05:12:32.100Z,8.60
2023-05-19T05:14:59.449Z,8.60
2023-05-19T05:17:27.150Z,8.60
2023-05-19T05:19:54.504Z,8.60
2023-05-19T05:22:21.593Z,8.70
2023-05-19T05:24:48.987Z,8.60
2023-05-19T05:27:15.745Z,8.70
2023-05-19T05:29:42.626Z,8.70
2023-05-19T05:32:09.469Z,8.70
2023-05-19T05:34:38.126Z,8.80
2023-05-19T05:37:05.200Z,8.70
2023-05-19T05:39:31.995Z,8.80
2023-05-19T05:41:58.766Z,8.80
2023-05-19T05:44:25.644Z,8.90
2023-05-19T05:46:52.771Z,8.90
2023-05-19T05:49:20.001Z,9.00
2023-05-19T05:51:57.939Z,9.00
2023-05-19T05:54:32.438Z,9.00
2023-05-19T05:56:59.628Z,9.00
2023-05-19T05:59:26.415Z,9.10
2023-05-19T06:01:53.331Z,9.10
2023-05-19T06:04:21.319Z,9.20
2023-05-19T06:06:48.174Z,9.20
2023-05-19T06:09:14.980Z,9.20
2023-05-19T06:11:41.754Z,9.20
2023-05-19T06:14:08.596Z,9.30
2023-05-19T06:16:35.492Z,9.30
2023-05-19T06:19:02.573Z,9.30
2023-05-19T06:21:29.478Z,9.40
2023-05-19T06:23:56.237Z,9.40
2023-05-19T06:26:22.983Z,9.50
2023-05-19T06:28:49.825Z,9.50
2023-05-19T06:31:16.876Z,9.50
2023-05-19T06:33:43.720Z,9.60
2023-05-19T06:36:10.786Z,9.60
2023-05-19T06:38:37.612Z,9.70
2023-05-19T06:41:04.641Z,9.70
2023-05-19T06:43:31.489Z,9.80
2023-05-19T06:45:58.295Z,9.80
2023-05-19T06:48:25.274Z,9.80
2023-05-19T06:50:52.095Z,9.80
2023-05-19T06:53:21.346Z,9.90
2023-05-19T06:55:59.562Z,9.90
2023-05-19T06:58:27.800Z,10.00
2023-05-19T07:00:54.678Z,10.10
2023-05-19T07:03:21.756Z,10.10
2023-05-19T07:05:48.804Z,10.10
2023-05-19T07:08:21.786Z,10.10
2023-05-19T07:10:48.616Z,10.20
2023-05-19T07:13:15.549Z,10.30
2023-05-19T07:15:42.352Z,10.40
2023-05-19T07:18:09.694Z,10.40
2023-05-19T07:20:36.497Z,10.40
2023-05-19T07:23:03.573Z,10.50
2023-05-19T07:25:30.708Z,10.60
2023-05-19T07:27:57.646Z,10.60
2023-05-19T07:30:24.733Z,10.50
2023-05-19T07:32:51.526Z,10.60
2023-05-19T07:35:18.488Z,10.70
2023-05-19T07:37:45.502Z,10.80
2023-05-19T07:40:12.620Z,10.80
2023-05-19T07:42:39.391Z,10.80
2023-05-19T07:45:07.017Z,10.90
2023-05-19T07:47:33.849Z,11.00
2023-05-19T07:50:00.693Z,11.10
2023-05-19T07:52:27.696Z,11.20
2023-05-19T07:54:54.807Z,11.20
2023-05-19T07:57:22.115Z,11.20
2023-05-19T07:59:48.976Z,11.40
2023-05-19T08:02:15.896Z,11.50
2023-05-19T08:04:43.002Z,11.60
2023-05-19T08:07:10.053Z,11.80
2023-05-19T08:09:36.960Z,12.00
2023-05-19T08:12:05.017Z,12.20
2023-05-19T08:14:33.339Z,12.30
2023-05-19T08:17:00.128Z,12.40
2023-05-19T08:19:27.045Z,12.70
2023-05-19T08:21:54.000Z,12.80
2023-05-19T08:24:20.840Z,13.10
2023-05-19T08:26:47.596Z,13.40
2023-05-19T08:29:14.493Z,13.70
2023-05-19T08:31:41.360Z,14.00
2023-05-19T08:34:08.190Z,14.30
2023-05-19T08:36:35.591Z,14.40
2023-05-19T08:39:02.611Z,14.70
2023-05-19T08:41:29.405Z,14.80
2023-05-19T08:43:56.246Z,14.90
2023-05-19T08:46:25.125Z,15.20
2023-05-19T08:48:55.256Z,15.40
2023-05-19T08:52:08.715Z,15.30
2023-05-19T08:54:45.109Z,15.50
2023-05-19T08:57:12.695Z,15.80
2023-05-19T08:59:40.127Z,16.00
2023-05-19T09:02:07.966Z,16.20
2023-05-19T09:04:34.950Z,16.10
2023-05-19T09:07:03.384Z,16.10
2023-05-19T09:09:30.594Z,16.10
2023-05-19T09:11:57.976Z,16.20
2023-05-19T09:14:24.848Z,16.30
2023-05-19T09:16:52.846Z,16.50
2023-05-19T09:19:20.960Z,16.60
2023-05-19T09:21:59.215Z,16.80
2023-05-19T09:24:26.686Z,16.70
2023-05-19T09:26:56.965Z,16.80
2023-05-19T09:29:25.118Z,16.90
2023-05-19T09:31:54.429Z,17.00
2023-05-19T09:34:23.911Z,17.00
2023-05-19T09:36:51.896Z,17.00
2023-05-19T09:39:20.696Z,17.10
2023-05-19T09:41:47.958Z,17.10
2023-05-19T09:44:23.928Z,17.00
2023-05-19T09:46:51.665Z,16.90
2023-05-19T09:49:32.866Z,16.90
2023-05-19T09:52:03.490Z,17.10
2023-05-19T09:54:32.357Z,17.30
2023-05-19T09:57:04.845Z,17.40
2023-05-19T09:59:33.818Z,17.50
2023-05-19T10:02:02.259Z,17.50
2023-05-19T10:04:30.042Z,17.60
2023-05-19T10:07:01.404Z,17.70
2023-05-19T10:09:29.725Z,17.70
2023-05-19T10:11:57.795Z,17.70
2023-05-19T10:14:29.104Z,17.70
2023-05-19T10:16:57.755Z,17.70
2023-05-19T10:19:27.674Z,17.60
2023-05-19T10:21:54.854Z,17.70
2023-05-19T10:24:22.397Z,17.90
2023-05-19T10:26:54.728Z,17.90
2023-05-19T10:29:28.600Z,17.80
2023-05-19T10:31:58.029Z,17.90
2023-05-19T10:34:33.870Z,17.80
2023-05-19T10:37:12.868Z,17.90
2023-05-19T10:39:42.489Z,18.10
2023-05-19T10:42:19.520Z,18.30
2023-05-19T10:45:04.388Z,18.30
2023-05-19T10:47:32.508Z,18.40
2023-05-19T10:50:00.748Z,18.50
2023-05-19T10:52:29.975Z,18.60
2023-05-19T10:54:58.377Z,18.60
2023-05-19T10:57:32.051Z,18.80
2023-05-19T11:00:10.996Z,19.00
2023-05-19T11:02:43.897Z,18.90
2023-05-19T11:05:16.630Z,19.00
2023-05-19T11:07:44.889Z,19.00
2023-05-19T11:10:12.173Z,19.00
2023-05-19T11:12:43.857Z,19.00
2023-05-19T11:15:25.609Z,19.00
2023-05-19T11:17:52.802Z,19.00
2023-05-19T11:20:23.134Z,19.20
2023-05-19T11:23:09.150Z,19.30
2023-05-19T11:25:43.189Z,19.40
2023-05-19T11:28:16.049Z,19.60
2023-05-19T11:30:44.573Z,19.60
2023-05-19T11:33:13.418Z,19.60
2023-05-19T11:35:41.135Z,19.80
2023-05-19T11:38:08.071Z,19.80
2023-05-19T11:40:34.934Z,20.00
2023-05-19T11:43:01.937Z,20.00
2023-05-19T11:45:29.901Z,20.20
2023-05-19T11:48:02.553Z,20.40
2023-05-19T11:50:31.469Z,20.40
2023-05-19T11:53:00.519Z,20.40
2023-05-19T11:55:28.042Z,20.50
2023-05-19T11:58:05.885Z,20.70
2023-05-19T12:00:37.884Z,20.80
2023-05-19T12:03:05.386Z,20.80
2023-05-19T12:05:35.482Z,20.90
2023-05-19T12:08:06.281Z,21.10
2023-05-19T12:10:36.410Z,21.00
2023-05-19T12:13:03.425Z,21.00
2023-05-19T12:15:31.759Z,21.00
2023-05-19T12:18:00.552Z,21.10
2023-05-19T12:20:28.954Z,21.10
2023-05-19T12:22:56.307Z,21.20
2023-05-19T12:25:24.252Z,21.40
2023-05-19T12:27:53.233Z,21.50
2023-05-19T12:30:26.159Z,21.60
2023-05-19T12:32:54.394Z,21.70
2023-05-19T12:35:23.313Z,21.80
2023-05-19T12:37:50.678Z,21.90
2023-05-19T12:40:17.568Z,22.00
2023-05-19T12:42:45.311Z,22.20
2023-05-19T12:45:12.177Z,22.30
2023-05-19T12:47:38.985Z,22.40
2023-05-19T12:50:07.745Z,22.50
2023-05-19T12:52:55.491Z,22.80
2023-05-19T12:55:23.172Z,22.70
2023-05-19T12:57:57.007Z,22.60
2023-05-19T13:00:27.790Z,22.60
2023-05-19T13:02:55.899Z,22.70
2023-05-19T13:05:23.192Z,22.80
2023-05-19T13:07:56.842Z,23.10
2023-05-19T13:10:24.238Z,23.10
2023-05-19T13:12:51.848Z,23.10
2023-05-19T13:15:18.704Z,23.20
2023-05-19T13:17:46.482Z,23.40
2023-05-19T13:20:13.676Z,23.50
2023-05-19T13:22:40.674Z,23.60
2023-05-19T13:25:08.016Z,23.60
2023-05-19T13:27:35.391Z,23.70
2023-05-19T13:30:02.708Z,23.80
2023-05-19T13:32:29.590Z,23.90
2023-05-19T13:34:57.316Z,24.00
2023-05-19T13:37:25.047Z,24.10
2023-05-19T13:39:52.330Z,24.20
2023-05-19T13:42:19.136Z,24.30
2023-05-19T13:44:46.426Z,24.20
2023-05-19T13:47:13.523Z,24.30
2023-05-19T13:49:41.349Z,24.50
2023-05-19T13:52:08.404Z,24.60
2023-05-19T13:54:35.253Z,24.90
2023-05-19T13:57:02.032Z,24.90
2023-05-19T13:59:29.692Z,25.00
2023-05-19T14:01:56.606Z,25.20
2023-05-19T14:04:24.472Z,25.20
2023-05-19T14:06:51.414Z,25.30
2023-05-19T14:09:18.299Z,25.50
2023-05-19T14:11:45.055Z,25.60
2023-05-19T14:14:11.909Z,25.50
2023-05-19T14:16:40.160Z,25.60
2023-05-19T14:19:07.195Z,25.80
2023-05-19T14:21:34.660Z,25.80
2023-05-19T14:24:01.575Z,25.70
2023-05-19T14:26:29.467Z,25.80
2023-05-19T14:28:57.138Z,26.00
2023-05-19T14:31:24.092Z,26.10
2023-05-19T14:33:51.638Z,25.90
2023-05-19T14:36:18.496Z,26.00
2023-05-19T14:38:45.313Z,26.10
2023-05-19T14:41:12.236Z,26.20
2023-05-19T14:43:41.360Z,26.20
2023-05-19T14:46:08.157Z,26.30
2023-05-19T14:48:35.502Z,26.20
2023-05-19T14:51:02.249Z,26.50
2023-05-19T14:53:29.076Z,26.70
2023-05-19T14:55:55.896Z,26.40
2023-05-19T14:58:28.962Z,26.40
2023-05-19T15:00:59.568Z,26.10
2023-05-19T15:03:26.460Z,26.00
2023-05-19T15:05:53.376Z,26.00
2023-05-19T15:08:20.152Z,26.30
2023-05-19T15:10:50.317Z,26.60
2023-05-19T15:13:18.929Z,26.80
2023-05-19T15:15:46.097Z,26.90
2023-05-19T15:18:13.263Z,27.10
2023-05-19T15:20:40.185Z,27.20
2023-05-19T15:23:07.000Z,27.10
2023-05-19T15:25:33.771Z,27.10
2023-05-19T15:28:00.539Z,27.30
2023-05-19T15:30:27.385Z,27.30
2023-05-19T15:32:54.220Z,27.70
2023-05-19T15:35:21.011Z,27.70
2023-05-19T15:37:47.857Z,27.60
2023-05-19T15:40:14.696Z,27.60
2023-05-19T15:42:41.463Z,27.80
2023-05-19T15:45:09.260Z,27.80
2023-05-19T15:47:36.306Z,27.80
2023-05-19T15:50:03.321Z,27.80
2023-05-19T15:52:30.150Z,27.50
2023-05-19T15:54:59.021Z,27.70
2023-05-19T15:57:26.715Z,27.80
2023-05-19T15:59:53.509Z,27.90
2023-05-19T16:02:20.466Z,28.00
2023-05-19T16:04:47.298Z,27.60
2023-05-19T16:07:14.116Z,27.60
2023-05-19T16:09:40.886Z,27.60
2023-05-19T16:12:07.823Z,27.70
2023-05-19T16:14:36.680Z,28.00
2023-05-19T16:17:04.797Z,28.10
2023-05-19T16:19:31.630Z,28.30
2023-05-19T16:21:58.559Z,28.20
2023-05-19T16:24:25.515Z,27.90
2023-05-19T16:26:53.680Z,28.10
2023-05-19T16:29:20.830Z,28.20
2023-05-19T16:31:47.648Z,28.30
2023-05-19T16:34:14.545Z,28.30
2023-05-19T16:36:41.380Z,28.30
2023-05-19T16:39:08.176Z,28.30
2023-05-19T16:41:35.037Z,28.30
2023-05-19T16:44:02.483Z,28.10
2023-05-19T16:46:31.256Z,28.00
2023-05-19T16:48:58.352Z,28.10
2023-05-19T16:51:25.275Z,27.80
2023-05-19T16:53:52.107Z,27.70
2023-05-19T16:56:18.948Z,27.70
2023-05-19T16:58:46.527Z,27.70
2023-05-19T17:01:13.356Z,27.70
2023-05-19T17:03:40.201Z,28.00
2023-05-19T17:06:07.175Z,27.90
2023-05-19T17:08:33.939Z,27.60
2023-05-19T17:11:00.922Z,27.60
2023-05-19T17:13:29.589Z,27.60
2023-05-19T17:15:56.415Z,27.10
2023-05-19T17:18:23.183Z,27.00
2023-05-19T17:20:49.977Z,26.90
2023-05-19T17:23:16.915Z,27.00
2023-05-19T17:25:43.686Z,26.90
2023-05-19T17:28:10.633Z,26.50
2023-05-19T17:30:39.717Z,26.40
2023-05-19T17:33:06.770Z,26.70
2023-05-19T17:35:33.787Z,26.70
2023-05-19T17:38:00.689Z,26.40
2023-05-19T17:40:28.397Z,26.40
2023-05-19T17:42:55.188Z,26.30
2023-05-19T17:45:22.009Z,26.10
2023-05-19T17:47:48.802Z,26.00
2023-05-19T17:50:15.667Z,26.00
2023-05-19T17:52:42.749Z,25.80
2023-05-19T17:55:10.516Z,25.70
2023-05-19T17:57:39.606Z,25.80
2023-05-19T18:00:07.594Z,25.60
2023-05-19T18:02:34.854Z,25.30
2023-05-19T18:05:01.940Z,25.20
2023-05-19T18:07:29.235Z,25.20
2023-05-19T18:09:56.414Z,25.20
2023-05-19T18:12:23.281Z,25.20
2023-05-19T18:14:50.653Z,25.10
2023-05-19T18:17:17.405Z,25.10
2023-05-19T18:19:44.208Z,25.20
2023-05-19T18:22:12.969Z,25.20
2023-05-19T18:24:39.797Z,25.20
2023-05-19T18:27:06.572Z,25.50
2023-05-19T18:29:33.899Z,25.50
2023-05-19T18:32:01.391Z,25.60
2023-05-19T18:34:30.029Z,25.30
2023-05-19T18:36:56.831Z,25.40
2023-05-19T18:39:23.659Z,25.30
2023-05-19T18:41:50.806Z,25.40
2023-05-19T18:44:17.708Z,25.30
2023-05-19T18:46:44.562Z,25.20
2023-05-19T18:49:11.988Z,25.10
2023-05-19T18:51:38.984Z,25.00
2023-05-19T18:54:05.799Z,24.90
2023-05-19T18:56:33.278Z,25.00
2023-05-19T18:59:00.148Z,25.10
2023-05-19T19:01:27.015Z,24.90
2023-05-19T19:03:53.926Z,24.70
2023-05-19T19:06:22.763Z,24.50
2023-05-19T19:08:49.946Z,24.20
2023-05-19T19:11:16.780Z,24.00
2023-05-19T19:13:43.840Z,23.80
2023-05-19T19:16:10.909Z,23.70
2023-05-19T19:18:37.734Z,23.60
2023-05-19T19:21:05.675Z,23.60
2023-05-19T19:23:32.805Z,23.50
2023-05-19T19:26:00.067Z,23.20
2023-05-19T19:28:27.091Z,23.20
2023-05-19T19:30:53.942Z,23.30
2023-05-19T19:33:20.834Z,23.20
2023-05-19T19:35:47.667Z,23.00
2023-05-19T19:38:14.568Z,23.00
2023-05-19T19:40:41.534Z,22.90
2023-05-19T19:43:08.464Z,22.70
2023-05-19T19:45:36.451Z,22.80
2023-05-19T19:48:03.336Z,22.70
2023-05-19T19:50:30.178Z,22.40
2023-05-19T19:52:57.033Z,22.40
2023-05-19T19:55:23.866Z,22.30
2023-05-19T19:57:51.349Z,22.40
2023-05-19T20:00:18.612Z,22.40
2023-05-19T20:03:02.711Z,22.20
2023-05-19T20:05:31.100Z,22.20
2023-05-19T20:07:57.910Z,22.20
2023-05-19T20:10:24.740Z,22.20
2023-05-19T20:12:51.936Z,22.10
2023-05-19T20:15:18.958Z,22.10
2023-05-19T20:17:45.900Z,21.80
2023-05-19T20:20:13.211Z,21.50
2023-05-19T20:22:40.209Z,21.40
2023-05-19T20:25:07.485Z,21.30
2023-05-19T20:27:34.345Z,21.60
2023-05-19T20:30:01.241Z,21.20
2023-05-19T20:32:28.037Z,21.20
2023-05-19T20:34:54.922Z,21.20
2023-05-19T20:37:22.339Z,21.20
2023-05-19T20:39:49.237Z,21.20
2023-05-19T20:42:16.346Z,21.20
2023-05-19T20:44:43.264Z,21.10
2023-05-19T20:47:10.528Z,21.20
2023-05-19T20:49:37.419Z,21.10
2023-05-19T20:52:04.577Z,21.10
2023-05-19T20:54:31.361Z,21.00
2023-05-19T20:56:58.167Z,20.90
2023-05-19T20:59:24.994Z,20.90
2023-05-19T21:01:51.852Z,20.60
2023-05-19T21:04:18.943Z,20.50
2023-05-19T21:06:45.802Z,20.50
2023-05-19T21:09:12.750Z,20.40
2023-05-19T21:11:39.589Z,20.30
2023-05-19T21:14:07.948Z,20.30
2023-05-19T21:16:38.689Z,20.20
2023-05-19T21:19:06.772Z,20.30
2023-05-19T21:21:34.002Z,20.20
2023-05-19T21:24:00.958Z,20.00
2023-05-19T21:26:27.834Z,19.80
2023-05-19T21:28:54.696Z,19.60
2023-05-19T21:31:21.570Z,19.50
2023-05-19T21:33:48.559Z,19.40
2023-05-19T21:36:15.749Z,19.30
2023-05-19T21:38:42.542Z,19.20
2023-05-19T21:41:09.406Z,19.20
2023-05-19T21:43:36.196Z,19.10
2023-05-19T21:46:03.093Z,19.00
2023-05-19T21:48:29.934Z,19.00
2023-05-19T21:50:57.699Z,19.00
2023-05-19T21:53:24.826Z,18.90
2023-05-19T21:55:51.671Z,19.00
2023-05-19T21:58:18.577Z,18.80
2023-05-19T22:00:53.221Z,18.60
2023-05-19T22:03:21.168Z,18.50
2023-05-19T22:05:49.745Z,18.40
2023-05-19T22:08:17.627Z,18.40
2023-05-19T22:10:44.564Z,18.30
2023-05-19T22:13:11.749Z,18.20
2023-05-19T22:15:38.595Z,18.20
2023-05-19T22:18:05.399Z,18.20
2023-05-19T22:20:32.522Z,18.00
2023-05-19T22:23:01.105Z,18.00
2023-05-19T22:25:27.879Z,17.90
2023-05-19T22:27:54.712Z,17.90
2023-05-19T22:30:21.751Z,17.80
2023-05-19T22:32:48.674Z,17.70
2023-05-19T22:35:15.562Z,17.70
2023-05-19T22:37:42.370Z,17.60
2023-05-19T22:40:09.361Z,17.60
2023-05-19T22:42:36.234Z,17.60
2023-05-19T22:45:03.200Z,17.60
2023-05-19T22:47:30.128Z,17.50
2023-05-19T22:49:57.263Z,17.40
2023-05-19T22:52:24.225Z,17.40
2023-05-19T22:54:50.973Z,17.40
2023-05-19T22:57:17.875Z,17.30
2023-05-19T22:59:44.825Z,17.30
2023-05-19T23:02:11.574Z,17.20
2023-05-19T23:04:38.439Z,17.20
2023-05-19T23:07:05.387Z,17.10
2023-05-19T23:09:32.143Z,17.10
2023-05-19T23:11:58.904Z,17.00
2023-05-19T23:14:26.031Z,17.00
2023-05-19T23:16:52.935Z,16.90
2023-05-19T23:19:20.667Z,16.90
2023-05-19T23:21:49.007Z,16.80
2023-05-19T23:24:16.170Z,16.70
2023-05-19T23:26:46.082Z,16.70
2023-05-19T23:29:13.721Z,16.70
2023-05-19T23:31:41.187Z,16.60
2023-05-19T23:34:08.164Z,16.60
2023-05-19T23:36:35.026Z,16.60
2023-05-19T23:39:01.920Z,16.50
2023-05-19T23:41:28.748Z,16.50
2023-05-19T23:43:55.717Z,16.40
2023-05-19T23:46:22.646Z,16.40
2023-05-19T23:48:49.512Z,16.30
2023-05-19T23:51:16.333Z,16.20
2023-05-19T23:53:43.104Z,16.10
2023-05-19T23:56:10.555Z,16.10
2023-05-19T23:58:37.307Z,16.00
